Airfield :







YOU CAN JOIN US ON...

 
LOGIN :

Register | Disclaimer

   EN    FR    IT 

 









Legend :    VFR   Marginal VFR   IFR   Intensive IFR   Very Intensive IFR
Visi :
Ceiling :
>= 8 km
>= 3000ft
5 to 8 km
1000 to 3000 ft
1500m to 5 km
500 to 1000 ft
800 to 1500m
200 to 500 ft
< 800m
< 200 ft
Symbols :   Thunderstorms  Fog  Heavy snow  Heavy precipitations  Wind > 20 kt






- Airport Elevation : 119 ft
- IATA code : YPJ


CYLA - Aupaluk

CURRENT METAR :
  • 162000Z 30011G16KT 15SM SCT055 BKN210 11/00 A2981 RMK SC4CI1 SLP097

EXPIRED METARs :
  • 161900Z 30010KT 15SM SCT052 SCT210 11/00 A2980 RMK SC3CI1 SLP096
  • 161800Z 30011G17KT 15SM FEW038 SCT220 11/00 A2981 RMK SC2CI1 SLP098
  • 161700Z 30010G16KT 15SM FEW038 SCT240 10/01 A2981 RMK SC2CI1 SLP099
  • 161600Z 31010G17KT 15SM FEW035 FEW180 09/01 A2981 RMK SC1AC2 SC TR SLP099

TAF N/A
CZUL FIR / North America



MET'MAP, your aeronautical weather chart ! - Copyright ORBIFLY December 2007 - Disclaimer

ORBIFLY MET'MAP TEAM :

Programming & Development : Alexandra Zaïnal
Original concept : Baudouin d'Aumeries
Technical & hardware support : Manuel Goepfert
Assistance : Marc-Olivier Méhu




SOURCES & CREDITS :

   NOAA